Terminal Aerodrome Forecast
Issued by NWS Goodland, KS

Home | Current Version | Previous Version | Text Only | Print | Product List | Glossary On
Versions: 1 2 3 4 5 6 7 8 9 10 11 12 13 14
000
FTUS43 KGLD 272326
TAFGLD
TAF
KGLD 272326Z 2800/2824 35014G22KT P6SM -SHRA BKN070
     FM280200 34008KT P6SM VCSH SCT070 BKN120
     FM280500 29007KT P6SM FEW200
     FM281300 33012KT P6SM SKC=

USA.gov is the U.S. government's official web portal to all federal, state and local government web resources and services.